sensor_id;sensor_type;location;lat;lon;timestamp;P1;durP1;ratioP1;P2;durP2;ratioP2
72584;SDS011;60618;40.084;32.908;2022-12-11T00:00:08;58.70;;;25.73;;
72584;SDS011;60618;40.084;32.908;2022-12-11T00:02:38;62.47;;;27.42;;
72584;SDS011;60618;40.084;32.908;2022-12-11T00:05:05;48.47;;;22.00;;
72584;SDS011;60618;40.084;32.908;2022-12-11T00:07:33;46.40;;;20.85;;
72584;SDS011;60618;40.084;32.908;2022-12-11T00:10:00;45.80;;;21.27;;
72584;SDS011;60618;40.084;32.908;2022-12-11T00:12:28;44.43;;;18.80;;
72584;SDS011;60618;40.084;32.908;2022-12-11T00:14:56;43.17;;;18.45;;
72584;SDS011;60618;40.084;32.908;2022-12-11T00:17:23;43.17;;;18.63;;
72584;SDS011;60618;40.084;32.908;2022-12-11T00:19:50;50.67;;;20.10;;
72584;SDS011;60618;40.084;32.908;2022-12-11T00:22:17;38.13;;;16.40;;
72584;SDS011;60618;40.084;32.908;2022-12-11T00:24:44;34.23;;;15.23;;
72584;SDS011;60618;40.084;32.908;2022-12-11T00:27:10;49.38;;;20.70;;
72584;SDS011;60618;40.084;32.908;2022-12-11T00:29:37;63.15;;;27.35;;
72584;SDS011;60618;40.084;32.908;2022-12-11T00:32:04;59.40;;;25.15;;
72584;SDS011;60618;40.084;32.908;2022-12-11T00:34:32;46.25;;;19.25;;
72584;SDS011;60618;40.084;32.908;2022-12-11T00:36:59;45.50;;;19.00;;
72584;SDS011;60618;40.084;32.908;2022-12-11T00:39:26;38.92;;;16.98;;
72584;SDS011;60618;40.084;32.908;2022-12-11T00:41:53;38.38;;;17.33;;
72584;SDS011;60618;40.084;32.908;2022-12-11T00:44:20;43.75;;;20.20;;
72584;SDS011;60618;40.084;32.908;2022-12-11T00:46:47;44.13;;;20.83;;
72584;SDS011;60618;40.084;32.908;2022-12-11T00:49:14;53.50;;;24.00;;
72584;SDS011;60618;40.084;32.908;2022-12-11T00:51:41;62.83;;;25.50;;
72584;SDS011;60618;40.084;32.908;2022-12-11T00:54:08;60.63;;;25.98;;
72584;SDS011;60618;40.084;32.908;2022-12-11T00:56:35;49.67;;;22.55;;
72584;SDS011;60618;40.084;32.908;2022-12-11T00:59:02;59.58;;;25.98;;
72584;SDS011;60618;40.084;32.908;2022-12-11T01:01:29;59.27;;;25.07;;
72584;SDS011;60618;40.084;32.908;2022-12-11T01:03:56;50.78;;;23.05;;
72584;SDS011;60618;40.084;32.908;2022-12-11T01:06:23;54.80;;;24.95;;
72584;SDS011;60618;40.084;32.908;2022-12-11T01:08:52;47.20;;;21.45;;
72584;SDS011;60618;40.084;32.908;2022-12-11T01:11:19;51.38;;;24.13;;
72584;SDS011;60618;40.084;32.908;2022-12-11T01:13:46;56.53;;;25.97;;
72584;SDS011;60618;40.084;32.908;2022-12-11T01:16:14;61.13;;;26.27;;
72584;SDS011;60618;40.084;32.908;2022-12-11T01:18:41;67.10;;;28.52;;
72584;SDS011;60618;40.084;32.908;2022-12-11T01:21:09;69.30;;;30.65;;
72584;SDS011;60618;40.084;32.908;2022-12-11T01:23:38;75.22;;;31.15;;
72584;SDS011;60618;40.084;32.908;2022-12-11T01:26:09;69.77;;;29.63;;
72584;SDS011;60618;40.084;32.908;2022-12-11T01:28:40;66.18;;;28.17;;
72584;SDS011;60618;40.084;32.908;2022-12-11T01:31:09;71.32;;;29.25;;
72584;SDS011;60618;40.084;32.908;2022-12-11T01:33:37;54.85;;;23.15;;
72584;SDS011;60618;40.084;32.908;2022-12-11T01:36:08;66.38;;;25.90;;
72584;SDS011;60618;40.084;32.908;2022-12-11T01:38:36;50.10;;;22.73;;
72584;SDS011;60618;40.084;32.908;2022-12-11T01:41:03;44.70;;;20.05;;
72584;SDS011;60618;40.084;32.908;2022-12-11T01:43:31;43.53;;;19.33;;
72584;SDS011;60618;40.084;32.908;2022-12-11T01:45:58;38.50;;;17.95;;
72584;SDS011;60618;40.084;32.908;2022-12-11T01:48:26;40.35;;;18.40;;
72584;SDS011;60618;40.084;32.908;2022-12-11T01:50:57;41.23;;;18.63;;
72584;SDS011;60618;40.084;32.908;2022-12-11T01:56:05;46.60;;;21.17;;
72584;SDS011;60618;40.084;32.908;2022-12-11T01:58:37;44.67;;;19.55;;
72584;SDS011;60618;40.084;32.908;2022-12-11T02:01:07;57.47;;;24.42;;
72584;SDS011;60618;40.084;32.908;2022-12-11T02:03:40;74.67;;;32.00;;
72584;SDS011;60618;40.084;32.908;2022-12-11T02:06:26;60.58;;;27.25;;
72584;SDS011;60618;40.084;32.908;2022-12-11T02:09:02;56.28;;;24.55;;
72584;SDS011;60618;40.084;32.908;2022-12-11T02:14:13;54.38;;;24.23;;
72584;SDS011;60618;40.084;32.908;2022-12-11T02:16:54;54.03;;;24.33;;
72584;SDS011;60618;40.084;32.908;2022-12-11T02:22:33;60.08;;;25.25;;
72584;SDS011;60618;40.084;32.908;2022-12-11T02:27:52;64.47;;;28.25;;
72584;SDS011;60618;40.084;32.908;2022-12-11T02:30:40;68.43;;;29.10;;
72584;SDS011;60618;40.084;32.908;2022-12-11T02:33:11;64.80;;;27.73;;
72584;SDS011;60618;40.084;32.908;2022-12-11T02:35:41;52.00;;;22.25;;
72584;SDS011;60618;40.084;32.908;2022-12-11T02:38:17;49.58;;;22.20;;
72584;SDS011;60618;40.084;32.908;2022-12-11T02:40:51;46.88;;;20.58;;
72584;SDS011;60618;40.084;32.908;2022-12-11T02:43:20;50.23;;;21.63;;
72584;SDS011;60618;40.084;32.908;2022-12-11T02:45:49;60.70;;;25.38;;
72584;SDS011;60618;40.084;32.908;2022-12-11T02:48:18;55.85;;;25.67;;
72584;SDS011;60618;40.084;32.908;2022-12-11T02:50:49;49.85;;;22.73;;
72584;SDS011;60618;40.084;32.908;2022-12-11T02:53:21;52.60;;;22.02;;
72584;SDS011;60618;40.084;32.908;2022-12-11T02:55:53;40.30;;;17.97;;
72584;SDS011;60618;40.084;32.908;2022-12-11T02:58:29;46.45;;;19.90;;
72584;SDS011;60618;40.084;32.908;2022-12-11T03:00:59;42.25;;;18.90;;
72584;SDS011;60618;40.084;32.908;2022-12-11T03:03:27;43.50;;;18.67;;
72584;SDS011;60618;40.084;32.908;2022-12-11T03:05:55;40.13;;;18.27;;
72584;SDS011;60618;40.084;32.908;2022-12-11T03:08:22;42.83;;;19.20;;
72584;SDS011;60618;40.084;32.908;2022-12-11T03:10:49;35.28;;;16.60;;
72584;SDS011;60618;40.084;32.908;2022-12-11T03:13:17;36.40;;;17.25;;
72584;SDS011;60618;40.084;32.908;2022-12-11T03:18:38;45.63;;;20.02;;
72584;SDS011;60618;40.084;32.908;2022-12-11T03:21:13;69.20;;;30.67;;
72584;SDS011;60618;40.084;32.908;2022-12-11T03:27:34;78.93;;;32.97;;
72584;SDS011;60618;40.084;32.908;2022-12-11T03:30:07;77.60;;;32.30;;
72584;SDS011;60618;40.084;32.908;2022-12-11T03:32:39;86.75;;;32.88;;
72584;SDS011;60618;40.084;32.908;2022-12-11T03:35:24;75.57;;;31.27;;
72584;SDS011;60618;40.084;32.908;2022-12-11T03:37:59;76.07;;;30.35;;
72584;SDS011;60618;40.084;32.908;2022-12-11T03:40:29;67.82;;;29.95;;
72584;SDS011;60618;40.084;32.908;2022-12-11T03:42:59;71.68;;;29.15;;
72584;SDS011;60618;40.084;32.908;2022-12-11T03:45:27;62.67;;;27.35;;
72584;SDS011;60618;40.084;32.908;2022-12-11T03:47:56;52.87;;;22.83;;
72584;SDS011;60618;40.084;32.908;2022-12-11T03:50:27;45.35;;;19.63;;
72584;SDS011;60618;40.084;32.908;2022-12-11T03:52:57;48.47;;;20.42;;
72584;SDS011;60618;40.084;32.908;2022-12-11T03:55:27;50.45;;;22.35;;
72584;SDS011;60618;40.084;32.908;2022-12-11T03:57:55;46.58;;;20.65;;
72584;SDS011;60618;40.084;32.908;2022-12-11T04:00:22;48.30;;;21.43;;
72584;SDS011;60618;40.084;32.908;2022-12-11T04:02:50;48.33;;;22.00;;
72584;SDS011;60618;40.084;32.908;2022-12-11T04:05:17;46.90;;;20.95;;
72584;SDS011;60618;40.084;32.908;2022-12-11T04:07:43;42.08;;;20.70;;
72584;SDS011;60618;40.084;32.908;2022-12-11T04:10:10;40.45;;;18.35;;
72584;SDS011;60618;40.084;32.908;2022-12-11T04:12:37;35.97;;;16.87;;
72584;SDS011;60618;40.084;32.908;2022-12-11T04:15:05;35.65;;;16.15;;
72584;SDS011;60618;40.084;32.908;2022-12-11T04:17:33;45.13;;;19.15;;
72584;SDS011;60618;40.084;32.908;2022-12-11T04:20:02;49.35;;;21.80;;
72584;SDS011;60618;40.084;32.908;2022-12-11T04:22:30;69.05;;;28.65;;
72584;SDS011;60618;40.084;32.908;2022-12-11T04:24:57;66.13;;;27.17;;
72584;SDS011;60618;40.084;32.908;2022-12-11T04:27:24;63.28;;;26.23;;
72584;SDS011;60618;40.084;32.908;2022-12-11T04:29:51;62.33;;;26.42;;
72584;SDS011;60618;40.084;32.908;2022-12-11T04:32:18;59.08;;;25.27;;
72584;SDS011;60618;40.084;32.908;2022-12-11T04:34:45;64.85;;;27.02;;
72584;SDS011;60618;40.084;32.908;2022-12-11T04:37:12;63.00;;;26.50;;
72584;SDS011;60618;40.084;32.908;2022-12-11T04:39:39;62.33;;;27.23;;
72584;SDS011;60618;40.084;32.908;2022-12-11T04:42:06;60.53;;;26.13;;
72584;SDS011;60618;40.084;32.908;2022-12-11T04:44:33;43.08;;;19.00;;
72584;SDS011;60618;40.084;32.908;2022-12-11T04:47:00;48.63;;;21.23;;
72584;SDS011;60618;40.084;32.908;2022-12-11T04:49:26;48.00;;;21.73;;
72584;SDS011;60618;40.084;32.908;2022-12-11T04:51:53;51.90;;;22.80;;
72584;SDS011;60618;40.084;32.908;2022-12-11T04:54:20;42.70;;;19.88;;
72584;SDS011;60618;40.084;32.908;2022-12-11T04:56:47;41.65;;;19.77;;
72584;SDS011;60618;40.084;32.908;2022-12-11T04:59:14;46.08;;;20.08;;
72584;SDS011;60618;40.084;32.908;2022-12-11T05:01:41;40.20;;;18.60;;
72584;SDS011;60618;40.084;32.908;2022-12-11T05:04:08;52.47;;;22.15;;
72584;SDS011;60618;40.084;32.908;2022-12-11T05:06:35;49.47;;;21.52;;
72584;SDS011;60618;40.084;32.908;2022-12-11T05:09:02;41.88;;;18.80;;
72584;SDS011;60618;40.084;32.908;2022-12-11T05:11:29;42.95;;;18.55;;
72584;SDS011;60618;40.084;32.908;2022-12-11T05:13:56;47.13;;;21.40;;
72584;SDS011;60618;40.084;32.908;2022-12-11T05:16:23;56.42;;;25.42;;
72584;SDS011;60618;40.084;32.908;2022-12-11T05:18:50;56.10;;;25.75;;
72584;SDS011;60618;40.084;32.908;2022-12-11T05:21:17;51.30;;;24.25;;
72584;SDS011;60618;40.084;32.908;2022-12-11T05:23:44;59.58;;;26.10;;
72584;SDS011;60618;40.084;32.908;2022-12-11T05:26:12;53.40;;;25.03;;
72584;SDS011;60618;40.084;32.908;2022-12-11T05:28:42;64.28;;;26.83;;
72584;SDS011;60618;40.084;32.908;2022-12-11T05:31:18;59.17;;;25.92;;
72584;SDS011;60618;40.084;32.908;2022-12-11T05:34:06;71.28;;;29.38;;
72584;SDS011;60618;40.084;32.908;2022-12-11T05:36:33;65.93;;;29.50;;
72584;SDS011;60618;40.084;32.908;2022-12-11T05:39:00;79.80;;;33.07;;
72584;SDS011;60618;40.084;32.908;2022-12-11T05:41:31;76.45;;;31.33;;
72584;SDS011;60618;40.084;32.908;2022-12-11T05:43:58;69.57;;;29.70;;
72584;SDS011;60618;40.084;32.908;2022-12-11T05:46:26;58.65;;;26.83;;
72584;SDS011;60618;40.084;32.908;2022-12-11T05:48:57;48.92;;;21.95;;
72584;SDS011;60618;40.084;32.908;2022-12-11T05:51:26;53.53;;;24.77;;
72584;SDS011;60618;40.084;32.908;2022-12-11T05:53:54;45.00;;;21.15;;
72584;SDS011;60618;40.084;32.908;2022-12-11T05:56:23;61.92;;;27.27;;
72584;SDS011;60618;40.084;32.908;2022-12-11T05:58:54;62.53;;;27.15;;
72584;SDS011;60618;40.084;32.908;2022-12-11T06:01:26;57.25;;;27.10;;
72584;SDS011;60618;40.084;32.908;2022-12-11T06:03:59;53.07;;;24.33;;
72584;SDS011;60618;40.084;32.908;2022-12-11T06:06:26;54.35;;;23.02;;
72584;SDS011;60618;40.084;32.908;2022-12-11T06:08:55;51.33;;;24.15;;
72584;SDS011;60618;40.084;32.908;2022-12-11T06:11:23;59.78;;;27.73;;
72584;SDS011;60618;40.084;32.908;2022-12-11T06:13:52;63.60;;;28.30;;
72584;SDS011;60618;40.084;32.908;2022-12-11T06:16:19;45.57;;;20.90;;
72584;SDS011;60618;40.084;32.908;2022-12-11T06:18:47;48.03;;;21.85;;
72584;SDS011;60618;40.084;32.908;2022-12-11T06:23:58;56.15;;;25.38;;
72584;SDS011;60618;40.084;32.908;2022-12-11T06:26:26;53.25;;;26.08;;
72584;SDS011;60618;40.084;32.908;2022-12-11T06:28:54;66.77;;;28.77;;
72584;SDS011;60618;40.084;32.908;2022-12-11T06:31:21;67.93;;;29.85;;
72584;SDS011;60618;40.084;32.908;2022-12-11T06:33:48;71.97;;;31.75;;
72584;SDS011;60618;40.084;32.908;2022-12-11T06:36:16;70.68;;;31.20;;
72584;SDS011;60618;40.084;32.908;2022-12-11T06:38:45;60.47;;;28.10;;
72584;SDS011;60618;40.084;32.908;2022-12-11T06:41:13;49.60;;;22.73;;
72584;SDS011;60618;40.084;32.908;2022-12-11T06:43:41;65.18;;;28.80;;
72584;SDS011;60618;40.084;32.908;2022-12-11T06:46:09;51.97;;;24.83;;
72584;SDS011;60618;40.084;32.908;2022-12-11T06:48:41;47.78;;;22.00;;
72584;SDS011;60618;40.084;32.908;2022-12-11T06:51:16;42.88;;;20.77;;
72584;SDS011;60618;40.084;32.908;2022-12-11T06:53:49;47.13;;;20.67;;
72584;SDS011;60618;40.084;32.908;2022-12-11T06:56:17;40.53;;;18.05;;
72584;SDS011;60618;40.084;32.908;2022-12-11T06:58:47;43.28;;;19.95;;
72584;SDS011;60618;40.084;32.908;2022-12-11T07:01:18;42.53;;;18.92;;
72584;SDS011;60618;40.084;32.908;2022-12-11T07:03:48;41.15;;;19.50;;
72584;SDS011;60618;40.084;32.908;2022-12-11T07:06:17;50.27;;;22.83;;
72584;SDS011;60618;40.084;32.908;2022-12-11T07:08:44;43.55;;;20.83;;
72584;SDS011;60618;40.084;32.908;2022-12-11T07:11:13;69.18;;;28.45;;
72584;SDS011;60618;40.084;32.908;2022-12-11T07:13:41;36.47;;;17.75;;
72584;SDS011;60618;40.084;32.908;2022-12-11T07:16:09;38.15;;;18.55;;
72584;SDS011;60618;40.084;32.908;2022-12-11T07:18:39;32.93;;;15.63;;
72584;SDS011;60618;40.084;32.908;2022-12-11T07:21:07;34.92;;;17.88;;
72584;SDS011;60618;40.084;32.908;2022-12-11T07:23:37;38.58;;;17.58;;
72584;SDS011;60618;40.084;32.908;2022-12-11T07:26:04;32.15;;;15.68;;
72584;SDS011;60618;40.084;32.908;2022-12-11T07:28:33;37.40;;;18.35;;
72584;SDS011;60618;40.084;32.908;2022-12-11T07:31:04;36.93;;;17.60;;
72584;SDS011;60618;40.084;32.908;2022-12-11T07:33:32;31.00;;;14.77;;
72584;SDS011;60618;40.084;32.908;2022-12-11T07:36:00;31.25;;;15.35;;
72584;SDS011;60618;40.084;32.908;2022-12-11T07:38:31;35.00;;;17.42;;
72584;SDS011;60618;40.084;32.908;2022-12-11T07:41:02;31.17;;;15.75;;
72584;SDS011;60618;40.084;32.908;2022-12-11T07:43:30;34.33;;;17.20;;
72584;SDS011;60618;40.084;32.908;2022-12-11T07:46:03;38.08;;;16.90;;
72584;SDS011;60618;40.084;32.908;2022-12-11T07:48:35;33.80;;;16.70;;
72584;SDS011;60618;40.084;32.908;2022-12-11T07:51:07;30.92;;;16.05;;
72584;SDS011;60618;40.084;32.908;2022-12-11T07:53:51;30.92;;;15.57;;
72584;SDS011;60618;40.084;32.908;2022-12-11T07:56:30;34.47;;;17.37;;
72584;SDS011;60618;40.084;32.908;2022-12-11T07:59:03;37.13;;;18.00;;
72584;SDS011;60618;40.084;32.908;2022-12-11T08:01:33;35.95;;;17.48;;
72584;SDS011;60618;40.084;32.908;2022-12-11T08:04:01;43.80;;;19.90;;
72584;SDS011;60618;40.084;32.908;2022-12-11T08:06:32;40.30;;;20.50;;
72584;SDS011;60618;40.084;32.908;2022-12-11T08:09:02;42.70;;;20.87;;
72584;SDS011;60618;40.084;32.908;2022-12-11T08:11:31;50.47;;;23.33;;
72584;SDS011;60618;40.084;32.908;2022-12-11T08:13:58;56.65;;;27.73;;
72584;SDS011;60618;40.084;32.908;2022-12-11T08:16:26;75.97;;;36.08;;
72584;SDS011;60618;40.084;32.908;2022-12-11T08:18:53;65.07;;;30.60;;
72584;SDS011;60618;40.084;32.908;2022-12-11T08:21:21;75.03;;;29.90;;
72584;SDS011;60618;40.084;32.908;2022-12-11T08:23:53;68.78;;;32.25;;
72584;SDS011;60618;40.084;32.908;2022-12-11T08:26:22;57.75;;;27.80;;
72584;SDS011;60618;40.084;32.908;2022-12-11T08:28:51;55.78;;;25.95;;
72584;SDS011;60618;40.084;32.908;2022-12-11T08:31:19;49.63;;;25.35;;
72584;SDS011;60618;40.084;32.908;2022-12-11T08:33:46;56.10;;;26.30;;
72584;SDS011;60618;40.084;32.908;2022-12-11T08:36:15;51.10;;;24.40;;
72584;SDS011;60618;40.084;32.908;2022-12-11T08:38:44;49.78;;;24.25;;
72584;SDS011;60618;40.084;32.908;2022-12-11T08:41:12;47.65;;;23.45;;
72584;SDS011;60618;40.084;32.908;2022-12-11T08:43:41;50.10;;;24.42;;
72584;SDS011;60618;40.084;32.908;2022-12-11T08:46:09;44.43;;;22.10;;
72584;SDS011;60618;40.084;32.908;2022-12-11T08:48:38;51.17;;;24.02;;
72584;SDS011;60618;40.084;32.908;2022-12-11T08:51:07;51.15;;;24.77;;
72584;SDS011;60618;40.084;32.908;2022-12-11T08:53:37;49.47;;;23.95;;
72584;SDS011;60618;40.084;32.908;2022-12-11T08:56:06;46.42;;;23.10;;
72584;SDS011;60618;40.084;32.908;2022-12-11T08:58:35;45.60;;;21.90;;
72584;SDS011;60618;40.084;32.908;2022-12-11T09:01:06;41.63;;;20.02;;
72584;SDS011;60618;40.084;32.908;2022-12-11T09:03:36;47.08;;;23.27;;
72584;SDS011;60618;40.084;32.908;2022-12-11T09:06:08;48.45;;;23.88;;
72584;SDS011;60618;40.084;32.908;2022-12-11T09:08:37;50.88;;;24.38;;
72584;SDS011;60618;40.084;32.908;2022-12-11T09:11:15;51.07;;;24.20;;
72584;SDS011;60618;40.084;32.908;2022-12-11T09:13:45;46.60;;;23.05;;
72584;SDS011;60618;40.084;32.908;2022-12-11T09:16:13;48.35;;;23.92;;
72584;SDS011;60618;40.084;32.908;2022-12-11T09:18:44;49.42;;;23.63;;
72584;SDS011;60618;40.084;32.908;2022-12-11T09:21:13;46.42;;;23.52;;
72584;SDS011;60618;40.084;32.908;2022-12-11T09:23:42;49.00;;;23.60;;
72584;SDS011;60618;40.084;32.908;2022-12-11T09:26:10;41.55;;;21.08;;
72584;SDS011;60618;40.084;32.908;2022-12-11T09:28:40;37.38;;;19.05;;
72584;SDS011;60618;40.084;32.908;2022-12-11T09:31:19;42.90;;;21.30;;
72584;SDS011;60618;40.084;32.908;2022-12-11T09:33:49;38.50;;;18.50;;
72584;SDS011;60618;40.084;32.908;2022-12-11T09:36:24;30.57;;;16.30;;
72584;SDS011;60618;40.084;32.908;2022-12-11T09:38:51;45.35;;;21.55;;
72584;SDS011;60618;40.084;32.908;2022-12-11T09:43:58;42.33;;;21.55;;
72584;SDS011;60618;40.084;32.908;2022-12-11T09:46:38;38.58;;;19.60;;
72584;SDS011;60618;40.084;32.908;2022-12-11T09:51:59;44.63;;;22.35;;
72584;SDS011;60618;40.084;32.908;2022-12-11T09:54:32;44.67;;;22.45;;
72584;SDS011;60618;40.084;32.908;2022-12-11T10:02:09;46.60;;;22.90;;
72584;SDS011;60618;40.084;32.908;2022-12-11T10:04:48;48.33;;;23.15;;
72584;SDS011;60618;40.084;32.908;2022-12-11T10:07:40;43.40;;;20.83;;
72584;SDS011;60618;40.084;32.908;2022-12-11T10:16:04;44.30;;;21.33;;
72584;SDS011;60618;40.084;32.908;2022-12-11T10:18:44;45.17;;;22.02;;
72584;SDS011;60618;40.084;32.908;2022-12-11T10:21:13;45.70;;;23.20;;
72584;SDS011;60618;40.084;32.908;2022-12-11T10:23:54;50.95;;;22.48;;
72584;SDS011;60618;40.084;32.908;2022-12-11T10:26:26;45.15;;;21.52;;
72584;SDS011;60618;40.084;32.908;2022-12-11T10:28:58;41.13;;;19.90;;
72584;SDS011;60618;40.084;32.908;2022-12-11T10:32:13;35.85;;;17.55;;
72584;SDS011;60618;40.084;32.908;2022-12-11T10:34:24;38.00;;;18.55;;
72584;SDS011;60618;40.084;32.908;2022-12-11T10:36:51;41.65;;;18.98;;
72584;SDS011;60618;40.084;32.908;2022-12-11T10:39:25;47.10;;;22.70;;
72584;SDS011;60618;40.084;32.908;2022-12-11T10:41:54;50.60;;;25.87;;
72584;SDS011;60618;40.084;32.908;2022-12-11T10:44:28;52.08;;;26.10;;
72584;SDS011;60618;40.084;32.908;2022-12-11T10:47:40;50.72;;;24.13;;
72584;SDS011;60618;40.084;32.908;2022-12-11T10:50:20;57.33;;;27.88;;
72584;SDS011;60618;40.084;32.908;2022-12-11T10:52:50;54.13;;;28.27;;
72584;SDS011;60618;40.084;32.908;2022-12-11T10:55:20;57.33;;;28.47;;
72584;SDS011;60618;40.084;32.908;2022-12-11T10:58:01;56.22;;;27.90;;
72584;SDS011;60618;40.084;32.908;2022-12-11T11:03:21;44.47;;;21.60;;
72584;SDS011;60618;40.084;32.908;2022-12-11T11:06:00;38.05;;;18.80;;
72584;SDS011;60618;40.084;32.908;2022-12-11T11:08:40;36.90;;;18.73;;
72584;SDS011;60618;40.084;32.908;2022-12-11T11:13:44;40.78;;;20.10;;
72584;SDS011;60618;40.084;32.908;2022-12-11T11:16:12;36.08;;;17.58;;
72584;SDS011;60618;40.084;32.908;2022-12-11T11:18:48;36.78;;;17.60;;
72584;SDS011;60618;40.084;32.908;2022-12-11T11:21:19;35.87;;;17.33;;
72584;SDS011;60618;40.084;32.908;2022-12-11T11:23:50;36.85;;;18.58;;
72584;SDS011;60618;40.084;32.908;2022-12-11T11:26:19;42.60;;;21.02;;
72584;SDS011;60618;40.084;32.908;2022-12-11T11:28:49;39.28;;;19.63;;
72584;SDS011;60618;40.084;32.908;2022-12-11T11:31:18;40.75;;;19.38;;
72584;SDS011;60618;40.084;32.908;2022-12-11T11:33:51;39.00;;;18.67;;
72584;SDS011;60618;40.084;32.908;2022-12-11T11:36:23;40.90;;;19.63;;
72584;SDS011;60618;40.084;32.908;2022-12-11T11:39:12;40.72;;;19.77;;
72584;SDS011;60618;40.084;32.908;2022-12-11T11:41:51;39.38;;;20.20;;
72584;SDS011;60618;40.084;32.908;2022-12-11T11:44:28;43.05;;;20.67;;
72584;SDS011;60618;40.084;32.908;2022-12-11T11:47:04;43.17;;;20.20;;
72584;SDS011;60618;40.084;32.908;2022-12-11T11:50:03;47.42;;;22.02;;
72584;SDS011;60618;40.084;32.908;2022-12-11T11:55:31;51.38;;;23.75;;
72584;SDS011;60618;40.084;32.908;2022-12-11T11:58:23;49.88;;;22.58;;
72584;SDS011;60618;40.084;32.908;2022-12-11T12:00:59;50.70;;;24.57;;
72584;SDS011;60618;40.084;32.908;2022-12-11T12:03:26;55.67;;;25.38;;
72584;SDS011;60618;40.084;32.908;2022-12-11T12:12:18;38.80;;;18.60;;
72584;SDS011;60618;40.084;32.908;2022-12-11T12:15:11;37.07;;;17.40;;
72584;SDS011;60618;40.084;32.908;2022-12-11T12:20:53;42.05;;;18.00;;
72584;SDS011;60618;40.084;32.908;2022-12-11T12:29:02;41.73;;;18.93;;
72584;SDS011;60618;40.084;32.908;2022-12-11T12:31:52;41.05;;;19.08;;
72584;SDS011;60618;40.084;32.908;2022-12-11T12:40:00;72.10;;;34.92;;
72584;SDS011;60618;40.084;32.908;2022-12-11T12:42:50;39.43;;;18.37;;
72584;SDS011;60618;40.084;32.908;2022-12-11T12:48:18;36.15;;;18.17;;
72584;SDS011;60618;40.084;32.908;2022-12-11T12:50:48;39.90;;;18.65;;
72584;SDS011;60618;40.084;32.908;2022-12-11T12:53:17;38.30;;;18.33;;
72584;SDS011;60618;40.084;32.908;2022-12-11T12:55:48;40.40;;;18.60;;
72584;SDS011;60618;40.084;32.908;2022-12-11T13:12:13;40.65;;;21.70;;
72584;SDS011;60618;40.084;32.908;2022-12-11T13:14:41;37.92;;;18.45;;
72584;SDS011;60618;40.084;32.908;2022-12-11T13:19:48;35.90;;;18.20;;
72584;SDS011;60618;40.084;32.908;2022-12-11T13:22:20;37.47;;;17.60;;
72584;SDS011;60618;40.084;32.908;2022-12-11T13:30:05;35.92;;;16.40;;
72584;SDS011;60618;40.084;32.908;2022-12-11T13:35:41;40.73;;;16.87;;
72584;SDS011;60618;40.084;32.908;2022-12-11T13:38:18;39.60;;;17.25;;
72584;SDS011;60618;40.084;32.908;2022-12-11T13:40:48;41.00;;;17.65;;
72584;SDS011;60618;40.084;32.908;2022-12-11T13:43:24;39.55;;;17.25;;
72584;SDS011;60618;40.084;32.908;2022-12-11T13:45:55;34.75;;;16.05;;
72584;SDS011;60618;40.084;32.908;2022-12-11T13:48:38;39.63;;;16.73;;
72584;SDS011;60618;40.084;32.908;2022-12-11T13:51:17;31.02;;;13.68;;
72584;SDS011;60618;40.084;32.908;2022-12-11T13:53:46;31.73;;;14.95;;
72584;SDS011;60618;40.084;32.908;2022-12-11T13:56:22;34.85;;;15.80;;
72584;SDS011;60618;40.084;32.908;2022-12-11T13:58:49;33.05;;;13.75;;
72584;SDS011;60618;40.084;32.908;2022-12-11T14:01:19;31.53;;;15.13;;
72584;SDS011;60618;40.084;32.908;2022-12-11T14:06:34;27.17;;;13.32;;
72584;SDS011;60618;40.084;32.908;2022-12-11T14:09:04;34.15;;;14.85;;
72584;SDS011;60618;40.084;32.908;2022-12-11T14:11:34;48.75;;;21.58;;
72584;SDS011;60618;40.084;32.908;2022-12-11T14:14:05;44.93;;;19.43;;
72584;SDS011;60618;40.084;32.908;2022-12-11T14:16:45;37.45;;;16.52;;
72584;SDS011;60618;40.084;32.908;2022-12-11T14:19:14;36.45;;;15.60;;
72584;SDS011;60618;40.084;32.908;2022-12-11T14:21:58;33.70;;;15.15;;
72584;SDS011;60618;40.084;32.908;2022-12-11T14:24:27;31.75;;;13.82;;
72584;SDS011;60618;40.084;32.908;2022-12-11T14:26:55;26.13;;;11.93;;
72584;SDS011;60618;40.084;32.908;2022-12-11T14:29:30;24.85;;;11.88;;
72584;SDS011;60618;40.084;32.908;2022-12-11T14:32:04;29.33;;;13.48;;
72584;SDS011;60618;40.084;32.908;2022-12-11T14:34:33;33.00;;;15.57;;
72584;SDS011;60618;40.084;32.908;2022-12-11T14:37:05;29.95;;;14.88;;
72584;SDS011;60618;40.084;32.908;2022-12-11T14:39:35;30.10;;;13.77;;
72584;SDS011;60618;40.084;32.908;2022-12-11T14:42:11;31.83;;;14.77;;
72584;SDS011;60618;40.084;32.908;2022-12-11T14:44:47;35.10;;;15.48;;
72584;SDS011;60618;40.084;32.908;2022-12-11T14:47:36;30.88;;;13.57;;
72584;SDS011;60618;40.084;32.908;2022-12-11T14:50:07;32.42;;;13.70;;
72584;SDS011;60618;40.084;32.908;2022-12-11T14:52:50;30.90;;;14.90;;
72584;SDS011;60618;40.084;32.908;2022-12-11T14:55:25;29.05;;;14.05;;
72584;SDS011;60618;40.084;32.908;2022-12-11T14:57:59;30.38;;;13.95;;
72584;SDS011;60618;40.084;32.908;2022-12-11T15:00:31;28.92;;;13.38;;
72584;SDS011;60618;40.084;32.908;2022-12-11T15:03:17;27.75;;;13.40;;
72584;SDS011;60618;40.084;32.908;2022-12-11T15:08:20;31.02;;;14.30;;
72584;SDS011;60618;40.084;32.908;2022-12-11T15:11:13;31.08;;;15.35;;
72584;SDS011;60618;40.084;32.908;2022-12-11T15:13:51;33.15;;;15.27;;
72584;SDS011;60618;40.084;32.908;2022-12-11T15:16:23;33.70;;;15.05;;
72584;SDS011;60618;40.084;32.908;2022-12-11T15:18:52;32.70;;;14.67;;
72584;SDS011;60618;40.084;32.908;2022-12-11T15:21:31;29.33;;;13.43;;
72584;SDS011;60618;40.084;32.908;2022-12-11T15:24:01;30.05;;;13.82;;
72584;SDS011;60618;40.084;32.908;2022-12-11T15:26:31;28.27;;;13.60;;
72584;SDS011;60618;40.084;32.908;2022-12-11T15:29:23;30.15;;;13.57;;
72584;SDS011;60618;40.084;32.908;2022-12-11T15:39:55;35.03;;;16.38;;
72584;SDS011;60618;40.084;32.908;2022-12-11T15:42:31;37.05;;;16.73;;
72584;SDS011;60618;40.084;32.908;2022-12-11T15:44:58;35.00;;;16.50;;
72584;SDS011;60618;40.084;32.908;2022-12-11T15:47:27;33.50;;;16.15;;
72584;SDS011;60618;40.084;32.908;2022-12-11T15:49:57;32.28;;;15.52;;
72584;SDS011;60618;40.084;32.908;2022-12-11T15:52:26;32.53;;;15.63;;
72584;SDS011;60618;40.084;32.908;2022-12-11T15:54:53;35.28;;;15.88;;
72584;SDS011;60618;40.084;32.908;2022-12-11T15:57:21;33.60;;;16.13;;
72584;SDS011;60618;40.084;32.908;2022-12-11T15:59:52;35.63;;;15.85;;
72584;SDS011;60618;40.084;32.908;2022-12-11T16:02:20;35.65;;;16.98;;
72584;SDS011;60618;40.084;32.908;2022-12-11T16:04:48;35.53;;;15.95;;
72584;SDS011;60618;40.084;32.908;2022-12-11T16:07:20;37.83;;;16.13;;
72584;SDS011;60618;40.084;32.908;2022-12-11T16:09:49;35.97;;;16.13;;
72584;SDS011;60618;40.084;32.908;2022-12-11T16:12:17;39.65;;;17.15;;
72584;SDS011;60618;40.084;32.908;2022-12-11T16:14:44;38.58;;;17.77;;
72584;SDS011;60618;40.084;32.908;2022-12-11T16:17:13;33.95;;;16.48;;